sensor_id;sensor_type;location;lat;lon;timestamp;temperature;humidity
8643;DHT22;4359;49.358;11.256;2022-10-26T00:00:23;7.10;99.90
8643;DHT22;4359;49.358;11.256;2022-10-26T00:02:48;7.10;99.90
8643;DHT22;4359;49.358;11.256;2022-10-26T00:05:14;7.00;99.90
8643;DHT22;4359;49.358;11.256;2022-10-26T00:07:40;7.10;99.90
8643;DHT22;4359;49.358;11.256;2022-10-26T00:10:06;7.10;99.90
8643;DHT22;4359;49.358;11.256;2022-10-26T00:12:31;7.10;99.90
8643;DHT22;4359;49.358;11.256;2022-10-26T00:14:57;7.20;99.90
8643;DHT22;4359;49.358;11.256;2022-10-26T00:17:22;7.20;99.90
8643;DHT22;4359;49.358;11.256;2022-10-26T00:19:48;7.20;99.90
8643;DHT22;4359;49.358;11.256;2022-10-26T00:22:14;7.20;99.90
8643;DHT22;4359;49.358;11.256;2022-10-26T00:24:39;7.30;99.90
8643;DHT22;4359;49.358;11.256;2022-10-26T00:27:05;7.30;99.90
8643;DHT22;4359;49.358;11.256;2022-10-26T00:29:31;7.30;99.90
8643;DHT22;4359;49.358;11.256;2022-10-26T00:31:56;7.30;99.90
8643;DHT22;4359;49.358;11.256;2022-10-26T00:34:22;7.30;99.90
8643;DHT22;4359;49.358;11.256;2022-10-26T00:36:47;7.40;99.90
8643;DHT22;4359;49.358;11.256;2022-10-26T00:39:13;7.40;99.90
8643;DHT22;4359;49.358;11.256;2022-10-26T00:41:40;7.40;99.90
8643;DHT22;4359;49.358;11.256;2022-10-26T00:47:55;7.50;99.90
8643;DHT22;4359;49.358;11.256;2022-10-26T00:50:34;7.70;99.90
8643;DHT22;4359;49.358;11.256;2022-10-26T00:53:02;7.70;99.90
8643;DHT22;4359;49.358;11.256;2022-10-26T00:55:32;7.70;99.90
8643;DHT22;4359;49.358;11.256;2022-10-26T00:58:00;7.80;99.90
8643;DHT22;4359;49.358;11.256;2022-10-26T01:00:27;7.80;99.90
8643;DHT22;4359;49.358;11.256;2022-10-26T01:02:54;7.80;99.90
8643;DHT22;4359;49.358;11.256;2022-10-26T01:05:20;7.90;99.90
8643;DHT22;4359;49.358;11.256;2022-10-26T01:07:46;7.90;99.90
8643;DHT22;4359;49.358;11.256;2022-10-26T01:10:12;8.00;99.90
8643;DHT22;4359;49.358;11.256;2022-10-26T01:12:39;8.10;99.90
8643;DHT22;4359;49.358;11.256;2022-10-26T01:15:05;8.10;99.90
8643;DHT22;4359;49.358;11.256;2022-10-26T01:23:10;8.20;99.90
8643;DHT22;4359;49.358;11.256;2022-10-26T01:26:02;8.20;99.90
8643;DHT22;4359;49.358;11.256;2022-10-26T01:31:28;8.30;99.90
8643;DHT22;4359;49.358;11.256;2022-10-26T01:34:02;8.40;99.90
8643;DHT22;4359;49.358;11.256;2022-10-26T01:36:36;8.40;99.90
8643;DHT22;4359;49.358;11.256;2022-10-26T01:39:09;8.50;99.90
8643;DHT22;4359;49.358;11.256;2022-10-26T01:41:53;8.50;99.90
8643;DHT22;4359;49.358;11.256;2022-10-26T01:44:28;8.60;99.90
8643;DHT22;4359;49.358;11.256;2022-10-26T01:46:57;8.50;99.90
8643;DHT22;4359;49.358;11.256;2022-10-26T01:49:34;8.60;99.90
8643;DHT22;4359;49.358;11.256;2022-10-26T01:52:01;8.60;99.90
8643;DHT22;4359;49.358;11.256;2022-10-26T01:54:26;8.70;99.90
8643;DHT22;4359;49.358;11.256;2022-10-26T01:57:02;8.70;99.90
8643;DHT22;4359;49.358;11.256;2022-10-26T02:07:52;8.80;99.90
8643;DHT22;4359;49.358;11.256;2022-10-26T02:13:01;8.90;99.90
8643;DHT22;4359;49.358;11.256;2022-10-26T02:15:52;8.80;99.90
8643;DHT22;4359;49.358;11.256;2022-10-26T02:18:33;8.80;99.90
8643;DHT22;4359;49.358;11.256;2022-10-26T02:21:06;8.80;99.90
8643;DHT22;4359;49.358;11.256;2022-10-26T02:23:36;8.80;99.90
8643;DHT22;4359;49.358;11.256;2022-10-26T02:26:04;8.80;99.90
8643;DHT22;4359;49.358;11.256;2022-10-26T02:28:39;8.90;99.90
8643;DHT22;4359;49.358;11.256;2022-10-26T02:31:07;8.90;99.90
8643;DHT22;4359;49.358;11.256;2022-10-26T02:33:37;8.90;99.90
8643;DHT22;4359;49.358;11.256;2022-10-26T02:36:07;8.90;99.90
8643;DHT22;4359;49.358;11.256;2022-10-26T02:38:35;8.90;99.90
8643;DHT22;4359;49.358;11.256;2022-10-26T02:41:03;8.90;99.90
8643;DHT22;4359;49.358;11.256;2022-10-26T02:43:32;9.00;99.90
8643;DHT22;4359;49.358;11.256;2022-10-26T02:46:06;9.20;99.90
8643;DHT22;4359;49.358;11.256;2022-10-26T02:48:33;9.20;99.90
8643;DHT22;4359;49.358;11.256;2022-10-26T02:51:23;9.10;99.90
8643;DHT22;4359;49.358;11.256;2022-10-26T02:57:04;9.20;99.90
8643;DHT22;4359;49.358;11.256;2022-10-26T02:59:35;9.20;99.90
8643;DHT22;4359;49.358;11.256;2022-10-26T03:02:03;9.20;99.90
8643;DHT22;4359;49.358;11.256;2022-10-26T03:04:30;9.10;99.90
8643;DHT22;4359;49.358;11.256;2022-10-26T03:06:56;9.10;99.90
8643;DHT22;4359;49.358;11.256;2022-10-26T03:09:22;9.20;99.90
8643;DHT22;4359;49.358;11.256;2022-10-26T03:11:48;9.20;99.90
8643;DHT22;4359;49.358;11.256;2022-10-26T03:14:14;9.20;99.90
8643;DHT22;4359;49.358;11.256;2022-10-26T03:16:42;9.20;99.90
8643;DHT22;4359;49.358;11.256;2022-10-26T03:19:08;9.30;99.90
8643;DHT22;4359;49.358;11.256;2022-10-26T03:21:34;9.30;99.90
8643;DHT22;4359;49.358;11.256;2022-10-26T03:23:59;9.30;99.90
8643;DHT22;4359;49.358;11.256;2022-10-26T03:26:25;9.30;99.90
8643;DHT22;4359;49.358;11.256;2022-10-26T03:28:50;9.30;99.90
8643;DHT22;4359;49.358;11.256;2022-10-26T03:31:16;9.30;99.90
8643;DHT22;4359;49.358;11.256;2022-10-26T03:33:42;9.30;99.90
8643;DHT22;4359;49.358;11.256;2022-10-26T03:36:08;9.20;99.90
8643;DHT22;4359;49.358;11.256;2022-10-26T03:38:33;9.20;99.90
8643;DHT22;4359;49.358;11.256;2022-10-26T03:40:59;9.20;99.90
8643;DHT22;4359;49.358;11.256;2022-10-26T03:43:25;9.20;99.90
8643;DHT22;4359;49.358;11.256;2022-10-26T03:45:51;9.30;99.90
8643;DHT22;4359;49.358;11.256;2022-10-26T03:48:17;9.30;99.90
8643;DHT22;4359;49.358;11.256;2022-10-26T03:50:43;9.40;99.90
8643;DHT22;4359;49.358;11.256;2022-10-26T03:53:08;9.40;99.90
8643;DHT22;4359;49.358;11.256;2022-10-26T03:55:34;9.40;99.90
8643;DHT22;4359;49.358;11.256;2022-10-26T03:58:00;9.40;99.90
8643;DHT22;4359;49.358;11.256;2022-10-26T04:00:26;9.40;99.90
8643;DHT22;4359;49.358;11.256;2022-10-26T04:02:56;9.50;99.90
8643;DHT22;4359;49.358;11.256;2022-10-26T04:05:26;9.60;99.90
8643;DHT22;4359;49.358;11.256;2022-10-26T04:07:56;9.70;99.90
8643;DHT22;4359;49.358;11.256;2022-10-26T04:10:23;9.70;99.90
8643;DHT22;4359;49.358;11.256;2022-10-26T04:12:49;9.80;99.90
8643;DHT22;4359;49.358;11.256;2022-10-26T04:15:16;9.80;99.90
8643;DHT22;4359;49.358;11.256;2022-10-26T04:17:42;9.80;99.90
8643;DHT22;4359;49.358;11.256;2022-10-26T04:20:09;9.90;99.90
8643;DHT22;4359;49.358;11.256;2022-10-26T04:22:34;9.90;99.90
8643;DHT22;4359;49.358;11.256;2022-10-26T04:25:02;10.00;99.90
8643;DHT22;4359;49.358;11.256;2022-10-26T04:27:27;9.90;99.90
8643;DHT22;4359;49.358;11.256;2022-10-26T04:29:53;9.90;99.90
8643;DHT22;4359;49.358;11.256;2022-10-26T04:32:18;9.90;99.90
8643;DHT22;4359;49.358;11.256;2022-10-26T04:34:44;9.80;99.90
8643;DHT22;4359;49.358;11.256;2022-10-26T04:37:10;9.90;99.90
8643;DHT22;4359;49.358;11.256;2022-10-26T04:39:35;10.00;99.90
8643;DHT22;4359;49.358;11.256;2022-10-26T04:42:01;10.10;99.90
8643;DHT22;4359;49.358;11.256;2022-10-26T04:44:26;10.10;99.90
8643;DHT22;4359;49.358;11.256;2022-10-26T04:46:52;10.10;99.90
8643;DHT22;4359;49.358;11.256;2022-10-26T04:49:18;10.10;99.90
8643;DHT22;4359;49.358;11.256;2022-10-26T04:51:43;10.10;99.90
8643;DHT22;4359;49.358;11.256;2022-10-26T04:54:09;10.00;99.90
8643;DHT22;4359;49.358;11.256;2022-10-26T04:56:35;10.10;99.90
8643;DHT22;4359;49.358;11.256;2022-10-26T04:59:00;10.10;99.90
8643;DHT22;4359;49.358;11.256;2022-10-26T05:01:26;10.10;99.90
8643;DHT22;4359;49.358;11.256;2022-10-26T05:03:52;10.10;99.90
8643;DHT22;4359;49.358;11.256;2022-10-26T05:06:19;10.10;99.90
8643;DHT22;4359;49.358;11.256;2022-10-26T05:08:44;10.10;99.90
8643;DHT22;4359;49.358;11.256;2022-10-26T05:11:10;10.10;99.90
8643;DHT22;4359;49.358;11.256;2022-10-26T05:13:36;10.20;99.90
8643;DHT22;4359;49.358;11.256;2022-10-26T05:16:02;10.20;99.90
8643;DHT22;4359;49.358;11.256;2022-10-26T05:18:27;10.20;99.90
8643;DHT22;4359;49.358;11.256;2022-10-26T05:20:53;10.10;99.90
8643;DHT22;4359;49.358;11.256;2022-10-26T05:23:20;10.10;99.90
8643;DHT22;4359;49.358;11.256;2022-10-26T05:25:46;10.10;99.90
8643;DHT22;4359;49.358;11.256;2022-10-26T05:28:12;10.10;99.90
8643;DHT22;4359;49.358;11.256;2022-10-26T05:30:43;10.10;99.90
8643;DHT22;4359;49.358;11.256;2022-10-26T05:33:10;10.20;99.90
8643;DHT22;4359;49.358;11.256;2022-10-26T05:35:36;10.20;99.90
8643;DHT22;4359;49.358;11.256;2022-10-26T05:38:09;10.20;99.90
8643;DHT22;4359;49.358;11.256;2022-10-26T05:40:35;10.30;99.90
8643;DHT22;4359;49.358;11.256;2022-10-26T05:43:01;10.30;99.90
8643;DHT22;4359;49.358;11.256;2022-10-26T05:45:27;10.40;99.90
8643;DHT22;4359;49.358;11.256;2022-10-26T05:47:53;10.40;99.90
8643;DHT22;4359;49.358;11.256;2022-10-26T05:50:18;10.50;99.90
8643;DHT22;4359;49.358;11.256;2022-10-26T05:52:45;10.50;99.90
8643;DHT22;4359;49.358;11.256;2022-10-26T05:55:14;10.50;99.90
8643;DHT22;4359;49.358;11.256;2022-10-26T05:57:41;10.40;99.90
8643;DHT22;4359;49.358;11.256;2022-10-26T06:00:08;10.40;99.90
8643;DHT22;4359;49.358;11.256;2022-10-26T06:03:02;10.30;99.90
8643;DHT22;4359;49.358;11.256;2022-10-26T06:05:34;10.30;99.90
8643;DHT22;4359;49.358;11.256;2022-10-26T06:08:01;10.30;99.90
8643;DHT22;4359;49.358;11.256;2022-10-26T06:10:27;10.40;99.90
8643;DHT22;4359;49.358;11.256;2022-10-26T06:12:53;10.40;99.90
8643;DHT22;4359;49.358;11.256;2022-10-26T06:15:20;10.60;99.90
8643;DHT22;4359;49.358;11.256;2022-10-26T06:31:00;11.00;99.90
8643;DHT22;4359;49.358;11.256;2022-10-26T06:33:26;11.00;99.90
8643;DHT22;4359;49.358;11.256;2022-10-26T06:36:20;11.10;99.90
8643;DHT22;4359;49.358;11.256;2022-10-26T06:38:49;11.00;99.90
8643;DHT22;4359;49.358;11.256;2022-10-26T06:41:17;11.20;99.90
8643;DHT22;4359;49.358;11.256;2022-10-26T06:43:44;11.20;99.90
8643;DHT22;4359;49.358;11.256;2022-10-26T06:46:47;11.40;99.90
8643;DHT22;4359;49.358;11.256;2022-10-26T06:57:09;12.00;99.90
8643;DHT22;4359;49.358;11.256;2022-10-26T06:59:37;12.10;99.90
8643;DHT22;4359;49.358;11.256;2022-10-26T07:02:04;12.20;99.90
8643;DHT22;4359;49.358;11.256;2022-10-26T07:04:29;12.30;99.90
8643;DHT22;4359;49.358;11.256;2022-10-26T07:06:55;12.40;99.90
8643;DHT22;4359;49.358;11.256;2022-10-26T07:09:21;12.50;99.90
8643;DHT22;4359;49.358;11.256;2022-10-26T07:11:47;12.50;99.90
8643;DHT22;4359;49.358;11.256;2022-10-26T07:14:13;12.50;99.90
8643;DHT22;4359;49.358;11.256;2022-10-26T07:16:38;12.50;99.90
8643;DHT22;4359;49.358;11.256;2022-10-26T07:19:04;12.50;99.90
8643;DHT22;4359;49.358;11.256;2022-10-26T07:21:29;12.60;99.90
8643;DHT22;4359;49.358;11.256;2022-10-26T07:23:55;12.60;99.90
8643;DHT22;4359;49.358;11.256;2022-10-26T07:26:21;12.70;99.90
8643;DHT22;4359;49.358;11.256;2022-10-26T07:28:48;12.70;99.90
8643;DHT22;4359;49.358;11.256;2022-10-26T07:31:14;12.70;99.90
8643;DHT22;4359;49.358;11.256;2022-10-26T07:33:40;12.90;99.90
8643;DHT22;4359;49.358;11.256;2022-10-26T07:36:07;12.90;99.90
8643;DHT22;4359;49.358;11.256;2022-10-26T07:38:35;12.80;99.90
8643;DHT22;4359;49.358;11.256;2022-10-26T07:41:02;12.80;99.90
8643;DHT22;4359;49.358;11.256;2022-10-26T07:43:28;12.80;99.90
8643;DHT22;4359;49.358;11.256;2022-10-26T07:45:53;12.80;99.90
8643;DHT22;4359;49.358;11.256;2022-10-26T07:48:19;12.80;99.90
8643;DHT22;4359;49.358;11.256;2022-10-26T07:50:45;12.80;99.90
8643;DHT22;4359;49.358;11.256;2022-10-26T07:53:10;12.80;99.90
8643;DHT22;4359;49.358;11.256;2022-10-26T07:55:36;12.80;99.90
8643;DHT22;4359;49.358;11.256;2022-10-26T07:58:02;12.70;99.90
8643;DHT22;4359;49.358;11.256;2022-10-26T08:00:28;12.70;99.90
8643;DHT22;4359;49.358;11.256;2022-10-26T08:02:54;12.70;99.90
8643;DHT22;4359;49.358;11.256;2022-10-26T08:05:20;12.70;99.90
8643;DHT22;4359;49.358;11.256;2022-10-26T08:07:46;12.60;99.90
8643;DHT22;4359;49.358;11.256;2022-10-26T08:10:12;12.60;99.90
8643;DHT22;4359;49.358;11.256;2022-10-26T08:12:39;12.60;99.90
8643;DHT22;4359;49.358;11.256;2022-10-26T08:15:06;12.60;99.90
8643;DHT22;4359;49.358;11.256;2022-10-26T08:17:32;12.60;99.90
8643;DHT22;4359;49.358;11.256;2022-10-26T08:19:57;12.70;99.90
8643;DHT22;4359;49.358;11.256;2022-10-26T08:22:23;12.70;99.90
8643;DHT22;4359;49.358;11.256;2022-10-26T08:24:49;12.70;99.90
8643;DHT22;4359;49.358;11.256;2022-10-26T08:27:15;12.80;99.90
8643;DHT22;4359;49.358;11.256;2022-10-26T08:29:41;12.90;99.90
8643;DHT22;4359;49.358;11.256;2022-10-26T08:32:07;13.00;99.90
8643;DHT22;4359;49.358;11.256;2022-10-26T08:34:32;13.20;99.90
8643;DHT22;4359;49.358;11.256;2022-10-26T08:36:58;13.30;99.90
8643;DHT22;4359;49.358;11.256;2022-10-26T08:39:24;13.40;99.90
8643;DHT22;4359;49.358;11.256;2022-10-26T08:42:08;13.50;99.90
8643;DHT22;4359;49.358;11.256;2022-10-26T08:44:57;13.50;99.90
8643;DHT22;4359;49.358;11.256;2022-10-26T08:47:29;13.60;99.90
8643;DHT22;4359;49.358;11.256;2022-10-26T08:52:35;13.80;99.90
8643;DHT22;4359;49.358;11.256;2022-10-26T08:55:03;13.80;99.90
8643;DHT22;4359;49.358;11.256;2022-10-26T08:57:38;13.90;99.90
8643;DHT22;4359;49.358;11.256;2022-10-26T09:00:10;14.00;99.90
8643;DHT22;4359;49.358;11.256;2022-10-26T09:02:36;14.10;99.90
8643;DHT22;4359;49.358;11.256;2022-10-26T09:05:01;14.30;99.90
8643;DHT22;4359;49.358;11.256;2022-10-26T09:10:34;14.70;99.90
8643;DHT22;4359;49.358;11.256;2022-10-26T09:13:20;14.80;99.90
8643;DHT22;4359;49.358;11.256;2022-10-26T09:19:27;15.10;99.90
8643;DHT22;4359;49.358;11.256;2022-10-26T09:21:41;15.20;99.90
8643;DHT22;4359;49.358;11.256;2022-10-26T09:26:53;15.40;99.90
8643;DHT22;4359;49.358;11.256;2022-10-26T09:29:22;15.40;99.90
8643;DHT22;4359;49.358;11.256;2022-10-26T09:31:50;15.50;99.90
8643;DHT22;4359;49.358;11.256;2022-10-26T09:34:31;15.60;99.90
8643;DHT22;4359;49.358;11.256;2022-10-26T09:37:20;15.80;99.90
8643;DHT22;4359;49.358;11.256;2022-10-26T09:40:26;15.90;99.90
8643;DHT22;4359;49.358;11.256;2022-10-26T09:42:53;15.90;99.90
8643;DHT22;4359;49.358;11.256;2022-10-26T09:45:31;16.00;99.90
8643;DHT22;4359;49.358;11.256;2022-10-26T09:50:47;16.00;99.90
8643;DHT22;4359;49.358;11.256;2022-10-26T09:53:14;16.10;99.90
8643;DHT22;4359;49.358;11.256;2022-10-26T09:55:42;16.10;99.90
8643;DHT22;4359;49.358;11.256;2022-10-26T09:58:23;16.20;99.90
8643;DHT22;4359;49.358;11.256;2022-10-26T10:00:50;16.30;99.90
8643;DHT22;4359;49.358;11.256;2022-10-26T10:03:25;16.40;99.90
8643;DHT22;4359;49.358;11.256;2022-10-26T10:05:51;16.50;99.90
8643;DHT22;4359;49.358;11.256;2022-10-26T10:08:25;16.50;99.90
8643;DHT22;4359;49.358;11.256;2022-10-26T10:11:06;16.60;99.90
8643;DHT22;4359;49.358;11.256;2022-10-26T10:13:34;16.90;99.90
8643;DHT22;4359;49.358;11.256;2022-10-26T10:16:20;17.20;99.90
8643;DHT22;4359;49.358;11.256;2022-10-26T10:18:57;17.40;99.90
8643;DHT22;4359;49.358;11.256;2022-10-26T10:21:40;17.60;99.90
8643;DHT22;4359;49.358;11.256;2022-10-26T10:27:04;17.70;99.90
8643;DHT22;4359;49.358;11.256;2022-10-26T10:29:38;17.80;99.90
8643;DHT22;4359;49.358;11.256;2022-10-26T10:32:05;17.70;99.90
8643;DHT22;4359;49.358;11.256;2022-10-26T10:34:32;17.70;99.90
8643;DHT22;4359;49.358;11.256;2022-10-26T10:36:59;17.80;99.90
8643;DHT22;4359;49.358;11.256;2022-10-26T10:39:41;17.80;99.90
8643;DHT22;4359;49.358;11.256;2022-10-26T10:42:24;17.80;99.90
8643;DHT22;4359;49.358;11.256;2022-10-26T10:44:53;17.90;99.90
8643;DHT22;4359;49.358;11.256;2022-10-26T10:47:33;17.90;99.90
8643;DHT22;4359;49.358;11.256;2022-10-26T10:50:10;17.80;99.90
8643;DHT22;4359;49.358;11.256;2022-10-26T10:52:40;17.70;99.90
8643;DHT22;4359;49.358;11.256;2022-10-26T11:00:23;17.30;99.90
8643;DHT22;4359;49.358;11.256;2022-10-26T11:11:14;17.50;99.90
8643;DHT22;4359;49.358;11.256;2022-10-26T11:16:31;18.00;99.90
8643;DHT22;4359;49.358;11.256;2022-10-26T11:19:19;18.20;99.90
8643;DHT22;4359;49.358;11.256;2022-10-26T11:21:53;18.30;99.90
8643;DHT22;4359;49.358;11.256;2022-10-26T11:27:35;18.00;99.90
8643;DHT22;4359;49.358;11.256;2022-10-26T11:30:12;17.70;99.90
8643;DHT22;4359;49.358;11.256;2022-10-26T11:32:43;17.40;99.90
8643;DHT22;4359;49.358;11.256;2022-10-26T11:40:32;17.40;99.90
8643;DHT22;4359;49.358;11.256;2022-10-26T11:43:17;17.40;99.90
8643;DHT22;4359;49.358;11.256;2022-10-26T11:45:57;17.30;99.90
8643;DHT22;4359;49.358;11.256;2022-10-26T11:56:50;17.50;99.90
8643;DHT22;4359;49.358;11.256;2022-10-26T11:59:19;17.50;99.90
8643;DHT22;4359;49.358;11.256;2022-10-26T12:02:00;17.60;99.90
8643;DHT22;4359;49.358;11.256;2022-10-26T12:04:30;17.50;99.90
8643;DHT22;4359;49.358;11.256;2022-10-26T12:06:58;17.70;99.90
8643;DHT22;4359;49.358;11.256;2022-10-26T12:09:30;17.80;99.90
8643;DHT22;4359;49.358;11.256;2022-10-26T12:14:55;18.00;99.90
8643;DHT22;4359;49.358;11.256;2022-10-26T12:17:38;18.20;99.90
8643;DHT22;4359;49.358;11.256;2022-10-26T12:23:11;18.10;99.90
8643;DHT22;4359;49.358;11.256;2022-10-26T12:25:37;18.00;99.90
8643;DHT22;4359;49.358;11.256;2022-10-26T12:28:03;17.90;99.90
8643;DHT22;4359;49.358;11.256;2022-10-26T12:30:32;17.90;99.90
8643;DHT22;4359;49.358;11.256;2022-10-26T12:33:26;17.80;99.90
8643;DHT22;4359;49.358;11.256;2022-10-26T12:35:49;17.90;99.90
8643;DHT22;4359;49.358;11.256;2022-10-26T12:40:47;18.10;99.90
8643;DHT22;4359;49.358;11.256;2022-10-26T12:45:42;17.80;99.90
8643;DHT22;4359;49.358;11.256;2022-10-26T12:50:46;17.60;99.90
8643;DHT22;4359;49.358;11.256;2022-10-26T12:53:17;17.50;99.90
8643;DHT22;4359;49.358;11.256;2022-10-26T13:02:06;17.40;99.90
8643;DHT22;4359;49.358;11.256;2022-10-26T13:07:23;17.80;99.90
8643;DHT22;4359;49.358;11.256;2022-10-26T13:12:57;18.30;99.90
8643;DHT22;4359;49.358;11.256;2022-10-26T13:15:37;18.30;99.90
8643;DHT22;4359;49.358;11.256;2022-10-26T13:18:15;18.20;99.90
8643;DHT22;4359;49.358;11.256;2022-10-26T13:21:09;18.20;99.90
8643;DHT22;4359;49.358;11.256;2022-10-26T13:23:39;18.20;99.90
8643;DHT22;4359;49.358;11.256;2022-10-26T13:26:14;18.30;99.90
8643;DHT22;4359;49.358;11.256;2022-10-26T13:34:11;18.40;99.90
8643;DHT22;4359;49.358;11.256;2022-10-26T13:36:46;18.40;99.90
8643;DHT22;4359;49.358;11.256;2022-10-26T13:39:21;18.40;99.90
8643;DHT22;4359;49.358;11.256;2022-10-26T13:41:51;18.40;99.90
8643;DHT22;4359;49.358;11.256;2022-10-26T13:44:37;18.30;99.90
8643;DHT22;4359;49.358;11.256;2022-10-26T13:47:11;18.40;99.90
8643;DHT22;4359;49.358;11.256;2022-10-26T13:49:46;18.50;99.90
8643;DHT22;4359;49.358;11.256;2022-10-26T13:52:34;18.40;99.90
8643;DHT22;4359;49.358;11.256;2022-10-26T13:55:14;18.30;99.90
8643;DHT22;4359;49.358;11.256;2022-10-26T13:57:58;18.20;99.90
8643;DHT22;4359;49.358;11.256;2022-10-26T14:00:25;18.10;99.90
8643;DHT22;4359;49.358;11.256;2022-10-26T14:02:50;18.20;99.90
8643;DHT22;4359;49.358;11.256;2022-10-26T14:05:17;18.40;99.90
8643;DHT22;4359;49.358;11.256;2022-10-26T14:07:55;18.60;99.90
8643;DHT22;4359;49.358;11.256;2022-10-26T14:10:35;18.90;99.90
8643;DHT22;4359;49.358;11.256;2022-10-26T14:13:06;19.10;99.90
8643;DHT22;4359;49.358;11.256;2022-10-26T14:15:33;19.30;99.90
8643;DHT22;4359;49.358;11.256;2022-10-26T14:18:02;19.30;99.90
8643;DHT22;4359;49.358;11.256;2022-10-26T14:20:29;19.40;99.90
8643;DHT22;4359;49.358;11.256;2022-10-26T14:22:55;19.10;99.90
8643;DHT22;4359;49.358;11.256;2022-10-26T14:25:27;18.70;99.90
8643;DHT22;4359;49.358;11.256;2022-10-26T14:27:56;18.50;99.90
8643;DHT22;4359;49.358;11.256;2022-10-26T14:30:32;18.40;99.90
8643;DHT22;4359;49.358;11.256;2022-10-26T14:32:58;18.20;99.90
8643;DHT22;4359;49.358;11.256;2022-10-26T14:35:32;18.00;99.90
8643;DHT22;4359;49.358;11.256;2022-10-26T14:38:11;17.90;99.90
8643;DHT22;4359;49.358;11.256;2022-10-26T14:40:39;17.60;99.90
8643;DHT22;4359;49.358;11.256;2022-10-26T14:43:05;17.50;99.90
8643;DHT22;4359;49.358;11.256;2022-10-26T14:45:36;17.40;99.90
8643;DHT22;4359;49.358;11.256;2022-10-26T14:48:04;17.30;99.90
8643;DHT22;4359;49.358;11.256;2022-10-26T14:50:31;17.10;99.90
8643;DHT22;4359;49.358;11.256;2022-10-26T14:53:13;17.00;99.90
8643;DHT22;4359;49.358;11.256;2022-10-26T14:55:47;16.90;99.90
8643;DHT22;4359;49.358;11.256;2022-10-26T14:58:20;16.80;99.90
8643;DHT22;4359;49.358;11.256;2022-10-26T15:00:47;16.70;99.90
8643;DHT22;4359;49.358;11.256;2022-10-26T15:03:32;16.60;99.90
8643;DHT22;4359;49.358;11.256;2022-10-26T15:06:38;16.60;99.90
8643;DHT22;4359;49.358;11.256;2022-10-26T15:09:04;16.60;99.90
8643;DHT22;4359;49.358;11.256;2022-10-26T15:11:32;16.50;99.90
8643;DHT22;4359;49.358;11.256;2022-10-26T15:14:00;16.50;99.90
8643;DHT22;4359;49.358;11.256;2022-10-26T15:16:28;16.50;99.90
8643;DHT22;4359;49.358;11.256;2022-10-26T15:19:14;16.50;99.90
8643;DHT22;4359;49.358;11.256;2022-10-26T15:21:45;16.50;99.90
8643;DHT22;4359;49.358;11.256;2022-10-26T15:26:49;16.20;99.90
8643;DHT22;4359;49.358;11.256;2022-10-26T15:29:43;15.90;99.90
8643;DHT22;4359;49.358;11.256;2022-10-26T15:32:30;15.80;99.90
8643;DHT22;4359;49.358;11.256;2022-10-26T15:35:28;15.50;99.90
8643;DHT22;4359;49.358;11.256;2022-10-26T15:37:55;15.40;99.90
8643;DHT22;4359;49.358;11.256;2022-10-26T15:40:23;15.30;99.90
8643;DHT22;4359;49.358;11.256;2022-10-26T15:42:51;15.20;99.90
8643;DHT22;4359;49.358;11.256;2022-10-26T15:47:46;15.20;99.90
8643;DHT22;4359;49.358;11.256;2022-10-26T15:50:17;15.20;99.90
8643;DHT22;4359;49.358;11.256;2022-10-26T15:52:43;15.30;99.90
8643;DHT22;4359;49.358;11.256;2022-10-26T15:55:09;15.30;99.90
8643;DHT22;4359;49.358;11.256;2022-10-26T15:57:35;15.30;99.90
8643;DHT22;4359;49.358;11.256;2022-10-26T16:00:04;15.30;99.90
8643;DHT22;4359;49.358;11.256;2022-10-26T16:02:30;15.30;99.90
8643;DHT22;4359;49.358;11.256;2022-10-26T16:04:55;15.30;99.90
8643;DHT22;4359;49.358;11.256;2022-10-26T16:07:22;15.30;99.90
8643;DHT22;4359;49.358;11.256;2022-10-26T16:09:49;15.30;99.90
8643;DHT22;4359;49.358;11.256;2022-10-26T16:12:14;15.20;99.90
8643;DHT22;4359;49.358;11.256;2022-10-26T16:14:40;15.20;99.90
8643;DHT22;4359;49.358;11.256;2022-10-26T16:17:06;15.10;99.90
8643;DHT22;4359;49.358;11.256;2022-10-26T16:19:32;15.00;99.90
8643;DHT22;4359;49.358;11.256;2022-10-26T16:21:59;14.90;99.90
8643;DHT22;4359;49.358;11.256;2022-10-26T16:24:26;14.80;99.90
8643;DHT22;4359;49.358;11.256;2022-10-26T16:26:52;14.90;99.90
8643;DHT22;4359;49.358;11.256;2022-10-26T16:29:18;14.90;99.90
8643;DHT22;4359;49.358;11.256;2022-10-26T16:31:44;14.90;99.90
8643;DHT22;4359;49.358;11.256;2022-10-26T16:34:10;14.70;99.90
8643;DHT22;4359;49.358;11.256;2022-10-26T16:36:35;14.60;99.90
8643;DHT22;4359;49.358;11.256;2022-10-26T16:39:03;14.50;99.90
8643;DHT22;4359;49.358;11.256;2022-10-26T16:41:29;14.60;99.90
8643;DHT22;4359;49.358;11.256;2022-10-26T16:43:56;14.50;99.90
8643;DHT22;4359;49.358;11.256;2022-10-26T16:46:22;14.60;99.90
8643;DHT22;4359;49.358;11.256;2022-10-26T16:48:49;14.60;99.90
8643;DHT22;4359;49.358;11.256;2022-10-26T16:51:18;14.50;99.90
8643;DHT22;4359;49.358;11.256;2022-10-26T16:53:49;14.50;99.90
8643;DHT22;4359;49.358;11.256;2022-10-26T16:56:20;14.50;99.90
8643;DHT22;4359;49.358;11.256;2022-10-26T16:58:47;14.40;99.90
8643;DHT22;4359;49.358;11.256;2022-10-26T17:01:14;14.40;99.90
8643;DHT22;4359;49.358;11.256;2022-10-26T17:03:47;14.40;99.90
8643;DHT22;4359;49.358;11.256;2022-10-26T17:06:13;14.40;99.90
8643;DHT22;4359;49.358;11.256;2022-10-26T17:08:39;14.40;99.90
8643;DHT22;4359;49.358;11.256;2022-10-26T17:11:08;14.40;99.90
8643;DHT22;4359;49.358;11.256;2022-10-26T17:13:38;14.30;99.90
8643;DHT22;4359;49.358;11.256;2022-10-26T17:16:10;14.30;99.90
8643;DHT22;4359;49.358;11.256;2022-10-26T17:18:38;14.20;99.90
8643;DHT22;4359;49.358;11.256;2022-10-26T17:21:05;14.20;99.90
8643;DHT22;4359;49.358;11.256;2022-10-26T17:23:31;14.20;99.90
8643;DHT22;4359;49.358;11.256;2022-10-26T17:26:00;14.20;99.90
8643;DHT22;4359;49.358;11.256;2022-10-26T17:28:26;14.10;99.90
8643;DHT22;4359;49.358;11.256;2022-10-26T17:33:33;14.10;99.90
8643;DHT22;4359;49.358;11.256;2022-10-26T17:35:59;14.10;99.90
8643;DHT22;4359;49.358;11.256;2022-10-26T17:38:25;14.10;99.90
8643;DHT22;4359;49.358;11.256;2022-10-26T17:40:51;14.10;99.90
8643;DHT22;4359;49.358;11.256;2022-10-26T17:43:16;14.10;99.90
8643;DHT22;4359;49.358;11.256;2022-10-26T17:45:42;14.10;99.90
8643;DHT22;4359;49.358;11.256;2022-10-26T17:48:08;14.10;99.90
8643;DHT22;4359;49.358;11.256;2022-10-26T17:50:33;14.00;99.90
8643;DHT22;4359;49.358;11.256;2022-10-26T17:52:59;14.00;99.90
8643;DHT22;4359;49.358;11.256;2022-10-26T17:55:25;13.80;99.90
8643;DHT22;4359;49.358;11.256;2022-10-26T17:57:50;13.70;99.90
8643;DHT22;4359;49.358;11.256;2022-10-26T18:00:16;13.60;99.90
8643;DHT22;4359;49.358;11.256;2022-10-26T18:02:42;13.50;99.90
8643;DHT22;4359;49.358;11.256;2022-10-26T18:05:08;13.40;99.90
8643;DHT22;4359;49.358;11.256;2022-10-26T18:07:34;13.20;99.90
8643;DHT22;4359;49.358;11.256;2022-10-26T18:10:00;13.10;99.90
8643;DHT22;4359;49.358;11.256;2022-10-26T18:12:25;13.10;99.90
8643;DHT22;4359;49.358;11.256;2022-10-26T18:14:51;13.00;99.90
8643;DHT22;4359;49.358;11.256;2022-10-26T18:17:16;12.90;99.90
8643;DHT22;4359;49.358;11.256;2022-10-26T18:19:42;12.80;99.90
8643;DHT22;4359;49.358;11.256;2022-10-26T18:22:08;12.60;99.90